createdAt,value
2022-10-15T00:00:17.363Z,13.60
2022-10-15T00:02:44.028Z,13.60
2022-10-15T00:05:10.667Z,14.60
2022-10-15T00:07:37.298Z,14.40
2022-10-15T00:10:04.059Z,14.40
2022-10-15T00:12:30.748Z,13.60
2022-10-15T00:14:57.392Z,13.90
2022-10-15T00:17:24.342Z,14.10
2022-10-15T00:19:51.215Z,14.40
2022-10-15T00:22:17.858Z,13.80
2022-10-15T00:24:44.494Z,13.80
2022-10-15T00:27:11.122Z,14.70
2022-10-15T00:29:37.745Z,14.60
2022-10-15T00:32:04.382Z,14.70
2022-10-15T00:34:31.075Z,13.60
2022-10-15T00:36:57.701Z,12.90
2022-10-15T00:39:24.349Z,13.70
2022-10-15T00:41:50.971Z,13.50
2022-10-15T00:44:28.777Z,14.20
2022-10-15T00:47:05.257Z,13.50
2022-10-15T00:49:40.545Z,13.50
2022-10-15T00:52:10.660Z,13.50
2022-10-15T00:54:41.319Z,13.60
2022-10-15T00:57:08.804Z,13.50
2022-10-15T00:59:37.138Z,14.40
2022-10-15T01:02:03.759Z,14.00
2022-10-15T01:04:30.799Z,12.80
2022-10-15T01:06:57.460Z,13.50
2022-10-15T01:09:24.190Z,14.30
2022-10-15T01:11:52.194Z,14.00
2022-10-15T01:14:21.885Z,14.40
2022-10-15T01:16:56.521Z,13.50
2022-10-15T01:19:41.888Z,13.50
2022-10-15T01:22:17.156Z,13.50
2022-10-15T01:24:49.899Z,13.50
2022-10-15T01:27:36.498Z,13.50
2022-10-15T01:30:03.109Z,13.50
2022-10-15T01:32:34.806Z,13.50
2022-10-15T01:35:13.685Z,14.10
2022-10-15T01:37:52.699Z,13.60
2022-10-15T01:40:22.115Z,13.70
2022-10-15T01:42:53.688Z,13.90
2022-10-15T01:45:22.805Z,14.60
2022-10-15T01:47:54.552Z,14.50
2022-10-15T01:50:23.651Z,14.60
2022-10-15T01:52:51.700Z,13.60
2022-10-15T01:55:19.549Z,14.50
2022-10-15T01:57:46.244Z,13.60
2022-10-15T02:00:13.294Z,14.50
2022-10-15T02:02:39.976Z,13.60
2022-10-15T02:05:07.884Z,13.50
2022-10-15T02:07:40.513Z,13.50
2022-10-15T02:10:10.264Z,13.50
2022-10-15T02:12:38.581Z,13.50
2022-10-15T02:15:24.071Z,13.60
2022-10-15T02:17:58.149Z,13.50
2022-10-15T02:20:28.564Z,13.30
2022-10-15T02:22:56.930Z,13.50
2022-10-15T02:25:25.640Z,14.30
2022-10-15T02:27:53.850Z,14.30
2022-10-15T02:30:20.637Z,13.50
2022-10-15T02:32:49.962Z,14.40
2022-10-15T02:35:17.001Z,13.20
2022-10-15T02:37:46.084Z,14.40
2022-10-15T02:40:12.934Z,13.50
2022-10-15T02:42:39.922Z,13.50
2022-10-15T02:45:06.787Z,13.30
2022-10-15T02:47:33.439Z,13.50
2022-10-15T02:50:00.405Z,14.50
2022-10-15T02:52:27.019Z,14.30
2022-10-15T02:54:53.643Z,13.30
2022-10-15T02:57:20.226Z,14.40
2022-10-15T02:59:46.815Z,13.50
2022-10-15T03:02:16.764Z,13.20
2022-10-15T03:04:45.848Z,14.50
2022-10-15T03:07:12.414Z,14.40
2022-10-15T03:09:39.008Z,13.50
2022-10-15T03:12:05.823Z,13.50
2022-10-15T03:14:32.408Z,13.50
2022-10-15T03:16:58.941Z,13.40
2022-10-15T03:19:25.882Z,14.40
2022-10-15T03:21:52.450Z,14.50
2022-10-15T03:24:19.027Z,13.40
2022-10-15T03:26:45.602Z,14.60
2022-10-15T03:29:12.173Z,14.40
2022-10-15T03:31:38.746Z,14.40
2022-10-15T03:34:05.308Z,14.00
2022-10-15T03:36:31.904Z,14.00
2022-10-15T03:38:58.468Z,13.90
2022-10-15T03:41:25.254Z,14.40
2022-10-15T03:43:51.826Z,13.60
2022-10-15T03:46:18.405Z,13.50
2022-10-15T03:48:48.389Z,13.50
2022-10-15T03:51:17.014Z,13.60
2022-10-15T03:53:47.061Z,13.60
2022-10-15T03:56:13.841Z,14.60
2022-10-15T03:58:40.431Z,14.60
2022-10-15T04:01:14.447Z,13.60
2022-10-15T04:03:41.122Z,13.60
2022-10-15T04:06:08.103Z,13.30
2022-10-15T04:08:34.738Z,13.60
2022-10-15T07:54:02.311Z,15.00
2022-10-15T07:56:28.956Z,15.20
2022-10-15T07:58:55.529Z,15.40
2022-10-15T08:01:22.183Z,15.30
2022-10-15T08:03:48.846Z,15.60
2022-10-15T08:06:15.587Z,16.00
2022-10-15T08:08:42.329Z,15.50
2022-10-15T08:11:10.111Z,15.40
2022-10-15T08:13:40.799Z,15.90
2022-10-15T08:16:07.954Z,15.50
2022-10-15T08:18:35.178Z,15.40
2022-10-15T08:21:01.851Z,16.00
2022-10-15T08:23:28.601Z,15.70
2022-10-15T08:25:57.378Z,16.00
2022-10-15T08:28:24.060Z,15.70
2022-10-15T08:30:50.732Z,16.40
2022-10-15T08:33:17.418Z,15.70
2022-10-15T08:35:44.354Z,16.30
2022-10-15T08:38:14.698Z,16.00
2022-10-15T08:40:48.635Z,15.50
2022-10-15T08:43:38.620Z,15.50
2022-10-15T08:46:09.829Z,15.50
2022-10-15T08:48:39.637Z,15.50
2022-10-15T08:51:09.312Z,16.00
2022-10-15T08:53:40.790Z,15.80
2022-10-15T08:56:13.657Z,16.20
2022-10-15T08:58:46.624Z,16.00
2022-10-15T09:01:16.367Z,15.80
2022-10-15T09:04:06.321Z,15.90
2022-10-15T09:06:37.045Z,15.90
2022-10-15T09:09:12.415Z,16.00
2022-10-15T09:11:44.084Z,16.10
2022-10-15T09:16:39.010Z,16.10
2022-10-15T09:19:10.574Z,16.40
2022-10-15T09:21:37.860Z,16.60
2022-10-15T09:24:04.983Z,16.20
2022-10-15T09:26:47.368Z,16.10
2022-10-15T09:29:13.929Z,16.10
2022-10-15T09:31:44.511Z,16.60
2022-10-15T09:34:31.443Z,16.00
2022-10-15T09:37:00.680Z,16.70
2022-10-15T09:39:36.487Z,16.40
2022-10-15T09:42:22.281Z,16.00
2022-10-15T09:44:49.859Z,16.20
2022-10-15T09:47:24.046Z,16.10
2022-10-15T09:49:50.662Z,16.00
2022-10-15T09:52:17.673Z,16.30
2022-10-15T09:55:03.065Z,16.40
2022-10-15T09:57:31.121Z,16.10
2022-10-15T10:00:02.001Z,16.80
2022-10-15T10:02:30.100Z,16.20
2022-10-15T10:04:57.065Z,17.10
2022-10-15T10:09:54.841Z,16.40
2022-10-15T10:12:23.029Z,16.70
2022-10-15T10:14:57.338Z,16.80
2022-10-15T10:17:27.692Z,16.50
2022-10-15T10:20:12.165Z,16.90
2022-10-15T10:22:45.614Z,16.90
2022-10-15T10:25:31.436Z,17.30
2022-10-15T10:28:03.713Z,17.20
2022-10-15T10:30:37.815Z,17.60
2022-10-15T10:33:04.703Z,17.40
2022-10-15T10:35:51.599Z,17.90
2022-10-15T10:38:22.132Z,17.90
2022-10-15T10:40:52.996Z,17.30
2022-10-15T10:45:55.949Z,17.70
2022-10-15T10:48:42.074Z,17.90
2022-10-15T10:51:12.909Z,17.90
2022-10-15T10:53:47.366Z,18.90
2022-10-15T10:56:15.499Z,17.80
2022-10-15T10:58:42.480Z,18.30
2022-10-15T11:01:11.776Z,17.80
2022-10-15T11:03:39.392Z,18.70
2022-10-15T11:06:12.107Z,18.00
2022-10-15T11:08:58.312Z,18.00
2022-10-15T11:11:37.169Z,18.20
2022-10-15T11:14:17.301Z,18.20
2022-10-15T11:17:02.810Z,18.20
2022-10-15T11:20:12.266Z,18.20
2022-10-15T11:22:47.093Z,18.20
2022-10-15T11:27:43.998Z,18.30
2022-10-15T11:30:16.124Z,18.40
2022-10-15T11:33:06.736Z,18.30
2022-10-15T11:35:53.995Z,18.00
2022-10-15T11:38:39.807Z,17.80
2022-10-15T11:41:18.592Z,17.70
2022-10-15T11:43:54.998Z,17.50
2022-10-15T11:46:24.682Z,17.70
2022-10-15T11:48:59.428Z,17.80
2022-10-15T11:51:46.279Z,17.70
2022-10-15T11:54:26.255Z,18.40
2022-10-15T11:56:53.720Z,17.90
2022-10-15T11:59:35.863Z,18.00
2022-10-15T12:02:13.986Z,17.90
2022-10-15T12:04:49.786Z,17.90
2022-10-15T12:07:42.730Z,18.00
2022-10-15T12:10:12.469Z,17.90
2022-10-15T12:12:51.216Z,18.10
2022-10-15T12:15:36.775Z,18.40
2022-10-15T12:18:15.764Z,18.50
2022-10-15T12:20:42.909Z,18.30
2022-10-15T12:23:29.750Z,18.20
2022-10-15T12:25:56.397Z,18.10
2022-10-15T12:28:29.147Z,18.10
2022-10-15T12:30:57.208Z,18.60
2022-10-15T12:33:25.602Z,19.00
2022-10-15T12:36:00.172Z,19.20
2022-10-15T12:38:28.522Z,18.40
2022-10-15T12:40:57.202Z,18.70
2022-10-15T12:43:25.256Z,19.80
2022-10-15T12:48:20.637Z,18.00
2022-10-15T12:50:47.314Z,18.60
2022-10-15T12:53:26.302Z,18.50
2022-10-15T12:56:08.486Z,18.70
2022-10-15T12:58:36.155Z,19.00
2022-10-15T13:01:09.863Z,19.00
2022-10-15T13:03:42.663Z,19.30
2022-10-15T13:06:32.790Z,19.20
2022-10-15T13:08:59.381Z,19.20
2022-10-15T13:11:42.526Z,18.70
2022-10-15T13:14:12.283Z,18.40
2022-10-15T13:16:43.549Z,18.20
2022-10-15T13:19:17.655Z,17.90
2022-10-15T13:21:57.871Z,17.60
2022-10-15T13:24:26.533Z,17.60
2022-10-15T13:26:54.067Z,17.60
2022-10-15T13:29:25.220Z,18.20
2022-10-15T13:31:53.298Z,17.80
2022-10-15T13:34:23.971Z,17.60
2022-10-15T13:36:50.834Z,17.60
2022-10-15T13:39:23.763Z,18.00
2022-10-15T13:41:50.508Z,17.60
2022-10-15T13:44:24.264Z,17.50
2022-10-15T13:54:15.377Z,20.90
2022-10-15T14:01:45.652Z,23.80
2022-10-15T14:48:35.254Z,22.60
2022-10-15T14:51:04.303Z,22.10
